sensor_id;sensor_type;location;lat;lon;timestamp;P1;durP1;ratioP1;P2;durP2;ratioP2
35380;SDS011;21486;51.916;8.378;2024-01-11T01:33:02;52.58;;;18.88;;
35380;SDS011;21486;51.916;8.378;2024-01-11T01:35:28;68.65;;;21.67;;
35380;SDS011;21486;51.916;8.378;2024-01-11T01:37:53;61.80;;;23.58;;
35380;SDS011;21486;51.916;8.378;2024-01-11T01:40:19;63.75;;;22.92;;
35380;SDS011;21486;51.916;8.378;2024-01-11T01:42:45;50.22;;;21.77;;
35380;SDS011;21486;51.916;8.378;2024-01-11T01:45:11;79.35;;;24.55;;
35380;SDS011;21486;51.916;8.378;2024-01-11T01:47:37;58.38;;;23.65;;
35380;SDS011;21486;51.916;8.378;2024-01-11T01:50:05;63.03;;;22.13;;
35380;SDS011;21486;51.916;8.378;2024-01-11T01:52:32;58.05;;;22.27;;
35380;SDS011;21486;51.916;8.378;2024-01-11T01:54:59;64.22;;;24.38;;
35380;SDS011;21486;51.916;8.378;2024-01-11T01:57:26;58.80;;;21.98;;
35380;SDS011;21486;51.916;8.378;2024-01-11T01:59:52;52.10;;;23.65;;
35380;SDS011;21486;51.916;8.378;2024-01-11T02:02:19;69.93;;;24.25;;
35380;SDS011;21486;51.916;8.378;2024-01-11T02:04:45;65.65;;;23.15;;
35380;SDS011;21486;51.916;8.378;2024-01-11T02:07:11;62.85;;;23.88;;
35380;SDS011;21486;51.916;8.378;2024-01-11T02:09:37;52.08;;;21.73;;
35380;SDS011;21486;51.916;8.378;2024-01-11T02:12:03;66.80;;;24.35;;
35380;SDS011;21486;51.916;8.378;2024-01-11T02:14:30;63.78;;;24.55;;
35380;SDS011;21486;51.916;8.378;2024-01-11T02:16:55;54.72;;;22.60;;
35380;SDS011;21486;51.916;8.378;2024-01-11T02:19:21;69.28;;;24.55;;
35380;SDS011;21486;51.916;8.378;2024-01-11T02:21:48;70.00;;;24.27;;
35380;SDS011;21486;51.916;8.378;2024-01-11T02:24:16;71.72;;;23.98;;
35380;SDS011;21486;51.916;8.378;2024-01-11T02:29:43;64.93;;;22.73;;
35380;SDS011;21486;51.916;8.378;2024-01-11T02:32:09;65.60;;;24.02;;
35380;SDS011;21486;51.916;8.378;2024-01-11T02:34:34;66.30;;;22.17;;
35380;SDS011;21486;51.916;8.378;2024-01-11T02:37:00;63.25;;;24.63;;
35380;SDS011;21486;51.916;8.378;2024-01-11T02:39:26;61.50;;;23.10;;
35380;SDS011;21486;51.916;8.378;2024-01-11T02:41:53;68.03;;;24.52;;
35380;SDS011;21486;51.916;8.378;2024-01-11T02:44:21;73.28;;;25.50;;
35380;SDS011;21486;51.916;8.378;2024-01-11T02:46:46;74.82;;;24.20;;
35380;SDS011;21486;51.916;8.378;2024-01-11T02:49:12;85.50;;;27.48;;
35380;SDS011;21486;51.916;8.378;2024-01-11T02:51:37;77.57;;;25.40;;
35380;SDS011;21486;51.916;8.378;2024-01-11T02:54:03;58.92;;;23.80;;
35380;SDS011;21486;51.916;8.378;2024-01-11T02:56:29;75.53;;;24.73;;
35380;SDS011;21486;51.916;8.378;2024-01-11T02:58:54;76.47;;;26.67;;
35380;SDS011;21486;51.916;8.378;2024-01-11T03:01:20;68.93;;;23.50;;
35380;SDS011;21486;51.916;8.378;2024-01-11T03:03:45;66.50;;;25.77;;
35380;SDS011;21486;51.916;8.378;2024-01-11T03:06:11;78.25;;;24.58;;
35380;SDS011;21486;51.916;8.378;2024-01-11T03:08:36;71.03;;;27.40;;
35380;SDS011;21486;51.916;8.378;2024-01-11T03:11:02;61.60;;;25.70;;
35380;SDS011;21486;51.916;8.378;2024-01-11T03:13:27;72.05;;;25.10;;
35380;SDS011;21486;51.916;8.378;2024-01-11T03:15:53;72.22;;;24.02;;
35380;SDS011;21486;51.916;8.378;2024-01-11T03:18:18;64.30;;;25.67;;
35380;SDS011;21486;51.916;8.378;2024-01-11T03:20:44;70.40;;;25.90;;
35380;SDS011;21486;51.916;8.378;2024-01-11T03:23:09;74.10;;;26.70;;
35380;SDS011;21486;51.916;8.378;2024-01-11T03:25:35;64.85;;;23.75;;
35380;SDS011;21486;51.916;8.378;2024-01-11T03:28:00;68.07;;;25.77;;
35380;SDS011;21486;51.916;8.378;2024-01-11T03:30:26;74.30;;;27.35;;
35380;SDS011;21486;51.916;8.378;2024-01-11T03:32:52;86.05;;;27.27;;
35380;SDS011;21486;51.916;8.378;2024-01-11T03:35:18;75.60;;;26.48;;
35380;SDS011;21486;51.916;8.378;2024-01-11T03:37:44;78.45;;;26.98;;
35380;SDS011;21486;51.916;8.378;2024-01-11T03:40:10;76.00;;;25.95;;
35380;SDS011;21486;51.916;8.378;2024-01-11T03:42:36;67.18;;;25.55;;
35380;SDS011;21486;51.916;8.378;2024-01-11T03:45:01;84.88;;;27.65;;
35380;SDS011;21486;51.916;8.378;2024-01-11T03:47:28;67.68;;;25.25;;
35380;SDS011;21486;51.916;8.378;2024-01-11T03:49:53;73.65;;;26.33;;
35380;SDS011;21486;51.916;8.378;2024-01-11T03:52:19;64.00;;;25.60;;
35380;SDS011;21486;51.916;8.378;2024-01-11T03:54:45;77.25;;;25.50;;
35380;SDS011;21486;51.916;8.378;2024-01-11T03:57:10;80.53;;;25.25;;
35380;SDS011;21486;51.916;8.378;2024-01-11T03:59:36;72.95;;;24.35;;
35380;SDS011;21486;51.916;8.378;2024-01-11T04:02:01;65.13;;;25.95;;
35380;SDS011;21486;51.916;8.378;2024-01-11T04:04:27;76.35;;;29.00;;
35380;SDS011;21486;51.916;8.378;2024-01-11T04:06:52;70.32;;;26.20;;
35380;SDS011;21486;51.916;8.378;2024-01-11T04:09:18;79.38;;;26.80;;
35380;SDS011;21486;51.916;8.378;2024-01-11T04:11:45;71.78;;;27.45;;
35380;SDS011;21486;51.916;8.378;2024-01-11T04:14:10;77.38;;;26.77;;
35380;SDS011;21486;51.916;8.378;2024-01-11T04:16:39;74.38;;;27.25;;
35380;SDS011;21486;51.916;8.378;2024-01-11T04:19:06;74.50;;;27.95;;
35380;SDS011;21486;51.916;8.378;2024-01-11T04:21:31;78.63;;;26.73;;
35380;SDS011;21486;51.916;8.378;2024-01-11T04:23:57;76.03;;;27.85;;
35380;SDS011;21486;51.916;8.378;2024-01-11T04:26:22;62.75;;;25.45;;
35380;SDS011;21486;51.916;8.378;2024-01-11T04:28:49;71.63;;;26.10;;
35380;SDS011;21486;51.916;8.378;2024-01-11T04:31:15;71.57;;;25.15;;
35380;SDS011;21486;51.916;8.378;2024-01-11T04:33:42;68.35;;;26.38;;
35380;SDS011;21486;51.916;8.378;2024-01-11T04:36:09;80.15;;;26.17;;
35380;SDS011;21486;51.916;8.378;2024-01-11T04:38:35;61.22;;;25.27;;
35380;SDS011;21486;51.916;8.378;2024-01-11T04:41:02;77.45;;;26.90;;
35380;SDS011;21486;51.916;8.378;2024-01-11T04:43:32;75.07;;;26.70;;
35380;SDS011;21486;51.916;8.378;2024-01-11T04:45:57;68.13;;;24.13;;
35380;SDS011;21486;51.916;8.378;2024-01-11T04:48:23;67.68;;;24.52;;
35380;SDS011;21486;51.916;8.378;2024-01-11T04:50:48;69.38;;;24.23;;
35380;SDS011;21486;51.916;8.378;2024-01-11T04:53:14;68.63;;;24.30;;
35380;SDS011;21486;51.916;8.378;2024-01-11T04:55:39;60.53;;;24.13;;
35380;SDS011;21486;51.916;8.378;2024-01-11T04:58:05;83.53;;;25.55;;
35380;SDS011;21486;51.916;8.378;2024-01-11T05:00:30;76.85;;;23.63;;
35380;SDS011;21486;51.916;8.378;2024-01-11T05:02:56;71.40;;;25.17;;
35380;SDS011;21486;51.916;8.378;2024-01-11T05:05:21;62.67;;;25.25;;
35380;SDS011;21486;51.916;8.378;2024-01-11T05:07:47;73.22;;;25.05;;
35380;SDS011;21486;51.916;8.378;2024-01-11T05:10:12;74.28;;;23.45;;
35380;SDS011;21486;51.916;8.378;2024-01-11T05:12:38;68.38;;;25.70;;
35380;SDS011;21486;51.916;8.378;2024-01-11T05:15:04;75.70;;;25.33;;
35380;SDS011;21486;51.916;8.378;2024-01-11T05:17:31;72.65;;;25.15;;
35380;SDS011;21486;51.916;8.378;2024-01-11T05:19:57;66.75;;;25.08;;
35380;SDS011;21486;51.916;8.378;2024-01-11T05:22:22;70.82;;;25.10;;
35380;SDS011;21486;51.916;8.378;2024-01-11T05:24:48;74.85;;;25.02;;
35380;SDS011;21486;51.916;8.378;2024-01-11T05:27:13;60.72;;;25.50;;
35380;SDS011;21486;51.916;8.378;2024-01-11T05:29:39;78.25;;;24.98;;
35380;SDS011;21486;51.916;8.378;2024-01-11T05:32:04;68.65;;;25.17;;
35380;SDS011;21486;51.916;8.378;2024-01-11T05:34:30;75.20;;;25.23;;
35380;SDS011;21486;51.916;8.378;2024-01-11T05:36:55;64.35;;;25.92;;
35380;SDS011;21486;51.916;8.378;2024-01-11T05:39:21;63.22;;;25.65;;
35380;SDS011;21486;51.916;8.378;2024-01-11T05:41:46;81.03;;;24.70;;
35380;SDS011;21486;51.916;8.378;2024-01-11T05:44:12;65.97;;;25.25;;
35380;SDS011;21486;51.916;8.378;2024-01-11T05:46:37;68.93;;;27.50;;
35380;SDS011;21486;51.916;8.378;2024-01-11T05:49:03;60.40;;;25.33;;
35380;SDS011;21486;51.916;8.378;2024-01-11T05:51:28;67.05;;;23.92;;
35380;SDS011;21486;51.916;8.378;2024-01-11T05:53:54;69.18;;;25.80;;
35380;SDS011;21486;51.916;8.378;2024-01-11T05:56:20;66.88;;;24.33;;
35380;SDS011;21486;51.916;8.378;2024-01-11T05:58:46;62.97;;;23.40;;
35380;SDS011;21486;51.916;8.378;2024-01-11T06:01:11;73.47;;;26.73;;
35380;SDS011;21486;51.916;8.378;2024-01-11T06:03:37;68.25;;;24.27;;
35380;SDS011;21486;51.916;8.378;2024-01-11T06:06:04;74.20;;;25.17;;
35380;SDS011;21486;51.916;8.378;2024-01-11T06:08:30;67.95;;;26.15;;
35380;SDS011;21486;51.916;8.378;2024-01-11T06:10:56;65.50;;;24.48;;
35380;SDS011;21486;51.916;8.378;2024-01-11T06:13:22;65.05;;;23.83;;
35380;SDS011;21486;51.916;8.378;2024-01-11T06:15:47;89.47;;;26.63;;
35380;SDS011;21486;51.916;8.378;2024-01-11T06:18:13;69.95;;;24.55;;
35380;SDS011;21486;51.916;8.378;2024-01-11T06:20:38;72.05;;;24.27;;
35380;SDS011;21486;51.916;8.378;2024-01-11T06:23:04;63.88;;;24.38;;
35380;SDS011;21486;51.916;8.378;2024-01-11T06:25:29;68.95;;;25.75;;
35380;SDS011;21486;51.916;8.378;2024-01-11T06:27:54;65.72;;;24.63;;
35380;SDS011;21486;51.916;8.378;2024-01-11T06:30:20;73.50;;;25.05;;
35380;SDS011;21486;51.916;8.378;2024-01-11T06:32:46;73.47;;;25.02;;
35380;SDS011;21486;51.916;8.378;2024-01-11T06:35:12;64.97;;;24.50;;
35380;SDS011;21486;51.916;8.378;2024-01-11T06:37:37;69.25;;;27.30;;
35380;SDS011;21486;51.916;8.378;2024-01-11T06:40:03;87.47;;;25.10;;
35380;SDS011;21486;51.916;8.378;2024-01-11T06:42:30;64.72;;;23.85;;
35380;SDS011;21486;51.916;8.378;2024-01-11T06:44:55;76.03;;;27.67;;
35380;SDS011;21486;51.916;8.378;2024-01-11T06:47:21;68.55;;;26.42;;
35380;SDS011;21486;51.916;8.378;2024-01-11T06:49:46;72.68;;;24.70;;
35380;SDS011;21486;51.916;8.378;2024-01-11T06:52:12;74.38;;;26.27;;
35380;SDS011;21486;51.916;8.378;2024-01-11T06:54:39;66.13;;;25.30;;
35380;SDS011;21486;51.916;8.378;2024-01-11T06:57:04;65.85;;;26.58;;
35380;SDS011;21486;51.916;8.378;2024-01-11T06:59:30;64.07;;;24.85;;
35380;SDS011;21486;51.916;8.378;2024-01-11T07:01:55;60.67;;;23.70;;
35380;SDS011;21486;51.916;8.378;2024-01-11T07:04:21;65.18;;;24.02;;
35380;SDS011;21486;51.916;8.378;2024-01-11T07:06:46;64.28;;;24.42;;
35380;SDS011;21486;51.916;8.378;2024-01-11T07:09:12;76.53;;;26.67;;
35380;SDS011;21486;51.916;8.378;2024-01-11T07:11:37;69.20;;;26.98;;
35380;SDS011;21486;51.916;8.378;2024-01-11T07:14:03;77.80;;;27.48;;
35380;SDS011;21486;51.916;8.378;2024-01-11T07:16:29;69.78;;;22.75;;
35380;SDS011;21486;51.916;8.378;2024-01-11T07:18:55;61.05;;;23.55;;
35380;SDS011;21486;51.916;8.378;2024-01-11T07:21:23;62.08;;;26.27;;
35380;SDS011;21486;51.916;8.378;2024-01-11T07:23:56;68.95;;;25.88;;
35380;SDS011;21486;51.916;8.378;2024-01-11T07:26:25;59.45;;;24.88;;
35380;SDS011;21486;51.916;8.378;2024-01-11T07:28:51;64.75;;;25.13;;
35380;SDS011;21486;51.916;8.378;2024-01-11T07:31:19;74.68;;;26.15;;
35380;SDS011;21486;51.916;8.378;2024-01-11T07:33:45;72.65;;;24.02;;
35380;SDS011;21486;51.916;8.378;2024-01-11T07:36:10;66.90;;;24.63;;
35380;SDS011;21486;51.916;8.378;2024-01-11T07:38:36;72.95;;;26.50;;
35380;SDS011;21486;51.916;8.378;2024-01-11T07:41:02;75.38;;;25.65;;
35380;SDS011;21486;51.916;8.378;2024-01-11T07:43:27;74.78;;;25.17;;
35380;SDS011;21486;51.916;8.378;2024-01-11T07:45:54;64.10;;;25.08;;
35380;SDS011;21486;51.916;8.378;2024-01-11T07:48:21;66.20;;;25.40;;
35380;SDS011;21486;51.916;8.378;2024-01-11T07:50:48;65.72;;;24.38;;
35380;SDS011;21486;51.916;8.378;2024-01-11T07:53:13;65.70;;;26.63;;
35380;SDS011;21486;51.916;8.378;2024-01-11T07:55:39;77.28;;;26.88;;
35380;SDS011;21486;51.916;8.378;2024-01-11T07:58:05;70.90;;;26.38;;
35380;SDS011;21486;51.916;8.378;2024-01-11T08:00:31;71.03;;;25.75;;
35380;SDS011;21486;51.916;8.378;2024-01-11T08:02:56;67.05;;;26.48;;
35380;SDS011;21486;51.916;8.378;2024-01-11T08:05:22;68.70;;;25.35;;
35380;SDS011;21486;51.916;8.378;2024-01-11T08:07:47;66.53;;;26.73;;
35380;SDS011;21486;51.916;8.378;2024-01-11T08:10:13;73.78;;;26.08;;
35380;SDS011;21486;51.916;8.378;2024-01-11T08:12:38;69.65;;;25.58;;
35380;SDS011;21486;51.916;8.378;2024-01-11T08:15:04;82.10;;;27.75;;
35380;SDS011;21486;51.916;8.378;2024-01-11T08:17:30;78.18;;;27.95;;
35380;SDS011;21486;51.916;8.378;2024-01-11T08:19:55;88.70;;;28.00;;
35380;SDS011;21486;51.916;8.378;2024-01-11T08:22:21;61.60;;;24.98;;
35380;SDS011;21486;51.916;8.378;2024-01-11T08:24:47;72.78;;;25.48;;
35380;SDS011;21486;51.916;8.378;2024-01-11T08:27:13;71.30;;;25.30;;
35380;SDS011;21486;51.916;8.378;2024-01-11T08:29:42;64.43;;;25.60;;
35380;SDS011;21486;51.916;8.378;2024-01-11T08:32:07;83.57;;;27.33;;
35380;SDS011;21486;51.916;8.378;2024-01-11T08:34:33;72.80;;;29.02;;
35380;SDS011;21486;51.916;8.378;2024-01-11T08:36:59;84.57;;;27.85;;
35380;SDS011;21486;51.916;8.378;2024-01-11T08:39:24;70.15;;;27.13;;
35380;SDS011;21486;51.916;8.378;2024-01-11T08:41:50;67.68;;;25.55;;
35380;SDS011;21486;51.916;8.378;2024-01-11T08:44:15;68.00;;;26.65;;
35380;SDS011;21486;51.916;8.378;2024-01-11T08:46:41;68.82;;;25.30;;
35380;SDS011;21486;51.916;8.378;2024-01-11T08:49:08;73.88;;;27.90;;
35380;SDS011;21486;51.916;8.378;2024-01-11T08:51:34;72.45;;;27.13;;
35380;SDS011;21486;51.916;8.378;2024-01-11T08:53:59;64.22;;;26.05;;
35380;SDS011;21486;51.916;8.378;2024-01-11T08:56:25;70.07;;;26.45;;
35380;SDS011;21486;51.916;8.378;2024-01-11T08:58:51;75.43;;;27.40;;
35380;SDS011;21486;51.916;8.378;2024-01-11T09:01:17;70.18;;;26.25;;
35380;SDS011;21486;51.916;8.378;2024-01-11T09:03:43;70.40;;;25.35;;
35380;SDS011;21486;51.916;8.378;2024-01-11T09:06:09;64.65;;;26.05;;
35380;SDS011;21486;51.916;8.378;2024-01-11T09:08:35;85.78;;;26.42;;
35380;SDS011;21486;51.916;8.378;2024-01-11T09:11:00;68.80;;;26.15;;
35380;SDS011;21486;51.916;8.378;2024-01-11T09:13:27;64.10;;;24.63;;
35380;SDS011;21486;51.916;8.378;2024-01-11T09:15:53;64.68;;;25.20;;
35380;SDS011;21486;51.916;8.378;2024-01-11T09:18:19;72.28;;;27.00;;
35380;SDS011;21486;51.916;8.378;2024-01-11T09:20:45;64.50;;;26.35;;
35380;SDS011;21486;51.916;8.378;2024-01-11T09:23:11;78.10;;;27.02;;
35380;SDS011;21486;51.916;8.378;2024-01-11T09:28:02;84.75;;;26.58;;
35380;SDS011;21486;51.916;8.378;2024-01-11T09:30:28;74.30;;;25.92;;
35380;SDS011;21486;51.916;8.378;2024-01-11T09:32:54;65.63;;;24.67;;
35380;SDS011;21486;51.916;8.378;2024-01-11T09:35:21;87.65;;;28.73;;
35380;SDS011;21486;51.916;8.378;2024-01-11T09:37:47;73.78;;;28.67;;
35380;SDS011;21486;51.916;8.378;2024-01-11T09:42:38;69.95;;;26.52;;
35380;SDS011;21486;51.916;8.378;2024-01-11T09:52:27;61.67;;;24.45;;
35380;SDS011;21486;51.916;8.378;2024-01-11T10:02:18;61.13;;;22.27;;
35380;SDS011;21486;51.916;8.378;2024-01-11T10:04:43;59.05;;;22.65;;
35380;SDS011;21486;51.916;8.378;2024-01-11T10:07:09;51.03;;;21.00;;
35380;SDS011;21486;51.916;8.378;2024-01-11T10:09:35;58.67;;;25.90;;
35380;SDS011;21486;51.916;8.378;2024-01-11T10:12:01;58.22;;;26.88;;
35380;SDS011;21486;51.916;8.378;2024-01-11T10:14:28;60.97;;;28.00;;
35380;SDS011;21486;51.916;8.378;2024-01-11T10:16:55;61.72;;;28.30;;
35380;SDS011;21486;51.916;8.378;2024-01-11T10:19:20;58.77;;;28.97;;
35380;SDS011;21486;51.916;8.378;2024-01-11T10:21:46;63.10;;;28.60;;
35380;SDS011;21486;51.916;8.378;2024-01-11T10:24:16;60.50;;;27.87;;
35380;SDS011;21486;51.916;8.378;2024-01-11T10:26:47;59.63;;;27.33;;
35380;SDS011;21486;51.916;8.378;2024-01-11T10:29:12;58.83;;;26.90;;
35380;SDS011;21486;51.916;8.378;2024-01-11T10:31:38;54.60;;;25.43;;
35380;SDS011;21486;51.916;8.378;2024-01-11T10:34:04;55.08;;;25.42;;
35380;SDS011;21486;51.916;8.378;2024-01-11T10:36:31;54.65;;;26.15;;
35380;SDS011;21486;51.916;8.378;2024-01-11T10:38:57;55.03;;;24.40;;
35380;SDS011;21486;51.916;8.378;2024-01-11T10:41:26;52.88;;;24.75;;
35380;SDS011;21486;51.916;8.378;2024-01-11T10:43:53;49.08;;;24.42;;
35380;SDS011;21486;51.916;8.378;2024-01-11T10:46:21;52.90;;;24.45;;
35380;SDS011;21486;51.916;8.378;2024-01-11T10:48:50;50.15;;;23.50;;
35380;SDS011;21486;51.916;8.378;2024-01-11T10:51:20;49.55;;;21.15;;
35380;SDS011;21486;51.916;8.378;2024-01-11T11:03:37;47.03;;;18.80;;
35380;SDS011;21486;51.916;8.378;2024-01-11T11:06:04;44.72;;;17.95;;
35380;SDS011;21486;51.916;8.378;2024-01-11T11:08:34;42.58;;;18.02;;
35380;SDS011;21486;51.916;8.378;2024-01-11T11:11:02;47.13;;;19.83;;
35380;SDS011;21486;51.916;8.378;2024-01-11T11:13:31;44.83;;;18.38;;
35380;SDS011;21486;51.916;8.378;2024-01-11T12:02:38;19.58;;;7.78;;
35380;SDS011;21486;51.916;8.378;2024-01-11T12:05:04;14.60;;;6.85;;
35380;SDS011;21486;51.916;8.378;2024-01-11T12:07:29;21.83;;;7.25;;
35380;SDS011;21486;51.916;8.378;2024-01-11T12:09:55;11.85;;;6.07;;
35380;SDS011;21486;51.916;8.378;2024-01-11T12:12:21;14.07;;;6.30;;
35380;SDS011;21486;51.916;8.378;2024-01-11T12:14:47;14.10;;;6.00;;
35380;SDS011;21486;51.916;8.378;2024-01-11T12:17:14;13.30;;;6.97;;
35380;SDS011;21486;51.916;8.378;2024-01-11T12:19:40;13.80;;;6.13;;
35380;SDS011;21486;51.916;8.378;2024-01-11T12:22:05;18.35;;;6.55;;
35380;SDS011;21486;51.916;8.378;2024-01-11T12:24:31;14.13;;;6.32;;
35380;SDS011;21486;51.916;8.378;2024-01-11T12:26:58;16.42;;;6.82;;
35380;SDS011;21486;51.916;8.378;2024-01-11T12:29:24;21.02;;;6.93;;
35380;SDS011;21486;51.916;8.378;2024-01-11T12:31:51;14.15;;;7.07;;
35380;SDS011;21486;51.916;8.378;2024-01-11T12:34:17;12.60;;;6.75;;
35380;SDS011;21486;51.916;8.378;2024-01-11T12:36:43;19.70;;;6.88;;
35380;SDS011;21486;51.916;8.378;2024-01-11T12:39:10;20.80;;;7.47;;
35380;SDS011;21486;51.916;8.378;2024-01-11T12:41:38;18.95;;;6.93;;
35380;SDS011;21486;51.916;8.378;2024-01-11T12:44:04;19.35;;;7.75;;
35380;SDS011;21486;51.916;8.378;2024-01-11T12:46:30;30.05;;;7.72;;
35380;SDS011;21486;51.916;8.378;2024-01-11T12:48:55;22.65;;;8.40;;
35380;SDS011;21486;51.916;8.378;2024-01-11T12:51:21;41.35;;;14.95;;
35380;SDS011;21486;51.916;8.378;2024-01-11T12:53:47;27.77;;;11.85;;
35380;SDS011;21486;51.916;8.378;2024-01-11T13:45:12;73.18;;;23.08;;
35380;SDS011;21486;51.916;8.378;2024-01-11T13:47:38;40.20;;;14.70;;
35380;SDS011;21486;51.916;8.378;2024-01-11T13:50:04;43.95;;;14.80;;
35380;SDS011;21486;51.916;8.378;2024-01-11T13:52:29;36.30;;;13.27;;
35380;SDS011;21486;51.916;8.378;2024-01-11T13:54:55;37.72;;;13.57;;
35380;SDS011;21486;51.916;8.378;2024-01-11T13:57:20;30.50;;;13.05;;
35380;SDS011;21486;51.916;8.378;2024-01-11T13:59:46;32.58;;;11.40;;
35380;SDS011;21486;51.916;8.378;2024-01-11T14:02:12;46.40;;;16.58;;
35380;SDS011;21486;51.916;8.378;2024-01-11T14:04:38;36.63;;;12.98;;
35380;SDS011;21486;51.916;8.378;2024-01-11T14:07:04;32.83;;;11.30;;
35380;SDS011;21486;51.916;8.378;2024-01-11T14:09:30;35.03;;;11.18;;
35380;SDS011;21486;51.916;8.378;2024-01-11T14:11:55;31.55;;;12.10;;
35380;SDS011;21486;51.916;8.378;2024-01-11T14:14:21;33.22;;;11.55;;
35380;SDS011;21486;51.916;8.378;2024-01-11T14:26:31;34.50;;;12.60;;
35380;SDS011;21486;51.916;8.378;2024-01-11T14:28:57;44.42;;;13.52;;
35380;SDS011;21486;51.916;8.378;2024-01-11T14:31:23;33.75;;;13.52;;
35380;SDS011;21486;51.916;8.378;2024-01-11T14:33:49;44.47;;;13.80;;
35380;SDS011;21486;51.916;8.378;2024-01-11T14:36:14;40.08;;;14.57;;
35380;SDS011;21486;51.916;8.378;2024-01-11T14:38:41;38.28;;;13.88;;
35380;SDS011;21486;51.916;8.378;2024-01-11T14:41:07;41.97;;;14.93;;
35380;SDS011;21486;51.916;8.378;2024-01-11T14:43:34;41.38;;;13.18;;
35380;SDS011;21486;51.916;8.378;2024-01-11T14:46:00;41.28;;;13.65;;
35380;SDS011;21486;51.916;8.378;2024-01-11T14:48:25;41.75;;;14.60;;
35380;SDS011;21486;51.916;8.378;2024-01-11T14:50:52;33.75;;;15.00;;
35380;SDS011;21486;51.916;8.378;2024-01-11T14:53:18;32.30;;;12.63;;
35380;SDS011;21486;51.916;8.378;2024-01-11T14:55:43;44.30;;;13.27;;
35380;SDS011;21486;51.916;8.378;2024-01-11T14:58:09;45.20;;;16.10;;
35380;SDS011;21486;51.916;8.378;2024-01-11T15:00:35;51.88;;;14.73;;
35380;SDS011;21486;51.916;8.378;2024-01-11T15:03:01;41.20;;;15.57;;
35380;SDS011;21486;51.916;8.378;2024-01-11T15:05:27;43.03;;;14.90;;
35380;SDS011;21486;51.916;8.378;2024-01-11T15:07:52;56.42;;;15.43;;
35380;SDS011;21486;51.916;8.378;2024-01-11T15:10:20;45.88;;;14.82;;
35380;SDS011;21486;51.916;8.378;2024-01-11T15:12:45;49.97;;;17.10;;
35380;SDS011;21486;51.916;8.378;2024-01-11T15:15:11;47.17;;;14.95;;
35380;SDS011;21486;51.916;8.378;2024-01-11T15:17:36;45.30;;;15.73;;
35380;SDS011;21486;51.916;8.378;2024-01-11T15:20:02;43.28;;;14.95;;
35380;SDS011;21486;51.916;8.378;2024-01-11T15:22:29;36.42;;;14.23;;
35380;SDS011;21486;51.916;8.378;2024-01-11T15:24:54;40.78;;;14.32;;
35380;SDS011;21486;51.916;8.378;2024-01-11T15:27:20;43.97;;;16.33;;
35380;SDS011;21486;51.916;8.378;2024-01-11T15:29:46;38.42;;;15.48;;
35380;SDS011;21486;51.916;8.378;2024-01-11T15:32:12;38.72;;;14.27;;
35380;SDS011;21486;51.916;8.378;2024-01-11T15:34:39;40.38;;;15.02;;
35380;SDS011;21486;51.916;8.378;2024-01-11T15:37:04;52.33;;;17.30;;
35380;SDS011;21486;51.916;8.378;2024-01-11T15:39:31;48.33;;;15.65;;
35380;SDS011;21486;51.916;8.378;2024-01-11T15:41:57;46.60;;;14.88;;
35380;SDS011;21486;51.916;8.378;2024-01-11T15:44:22;44.25;;;16.80;;
35380;SDS011;21486;51.916;8.378;2024-01-11T15:46:49;53.67;;;16.88;;
35380;SDS011;21486;51.916;8.378;2024-01-11T15:49:14;43.05;;;16.13;;
35380;SDS011;21486;51.916;8.378;2024-01-11T15:51:40;40.53;;;15.68;;
35380;SDS011;21486;51.916;8.378;2024-01-11T15:54:06;41.97;;;16.35;;
35380;SDS011;21486;51.916;8.378;2024-01-11T15:56:31;55.42;;;17.52;;
35380;SDS011;21486;51.916;8.378;2024-01-11T15:58:57;40.65;;;16.63;;
35380;SDS011;21486;51.916;8.378;2024-01-11T16:01:22;43.50;;;15.43;;
35380;SDS011;21486;51.916;8.378;2024-01-11T16:03:48;51.88;;;17.65;;
35380;SDS011;21486;51.916;8.378;2024-01-11T16:06:15;57.03;;;16.13;;
35380;SDS011;21486;51.916;8.378;2024-01-11T16:08:40;56.22;;;17.95;;
35380;SDS011;21486;51.916;8.378;2024-01-11T16:11:06;45.30;;;16.10;;
35380;SDS011;21486;51.916;8.378;2024-01-11T16:13:31;38.65;;;17.35;;
35380;SDS011;21486;51.916;8.378;2024-01-11T16:15:57;48.05;;;16.20;;
35380;SDS011;21486;51.916;8.378;2024-01-11T16:18:23;65.05;;;18.50;;
35380;SDS011;21486;51.916;8.378;2024-01-11T16:20:49;46.90;;;18.02;;
35380;SDS011;21486;51.916;8.378;2024-01-11T16:23:16;46.13;;;17.20;;
35380;SDS011;21486;51.916;8.378;2024-01-11T16:25:44;58.13;;;18.42;;
35380;SDS011;21486;51.916;8.378;2024-01-11T16:28:10;44.58;;;18.10;;
35380;SDS011;21486;51.916;8.378;2024-01-11T16:30:35;51.67;;;19.10;;
35380;SDS011;21486;51.916;8.378;2024-01-11T16:33:01;54.83;;;19.05;;
35380;SDS011;21486;51.916;8.378;2024-01-11T16:35:28;48.55;;;19.35;;
35380;SDS011;21486;51.916;8.378;2024-01-11T16:37:53;59.95;;;18.17;;
35380;SDS011;21486;51.916;8.378;2024-01-11T16:40:19;49.88;;;18.08;;
35380;SDS011;21486;51.916;8.378;2024-01-11T16:42:44;47.53;;;18.52;;
35380;SDS011;21486;51.916;8.378;2024-01-11T16:45:10;45.58;;;16.73;;
35380;SDS011;21486;51.916;8.378;2024-01-11T16:47:35;41.05;;;15.50;;
35380;SDS011;21486;51.916;8.378;2024-01-11T16:50:05;54.35;;;16.63;;
35380;SDS011;21486;51.916;8.378;2024-01-11T16:52:31;50.50;;;16.67;;
35380;SDS011;21486;51.916;8.378;2024-01-11T16:55:00;56.53;;;18.48;;
35380;SDS011;21486;51.916;8.378;2024-01-11T16:57:25;49.65;;;17.75;;
35380;SDS011;21486;51.916;8.378;2024-01-11T16:59:51;44.17;;;17.20;;
35380;SDS011;21486;51.916;8.378;2024-01-11T17:02:19;52.05;;;17.48;;
35380;SDS011;21486;51.916;8.378;2024-01-11T17:04:46;42.47;;;16.90;;
35380;SDS011;21486;51.916;8.378;2024-01-11T17:07:11;67.05;;;19.60;;
35380;SDS011;21486;51.916;8.378;2024-01-11T17:09:37;52.60;;;18.33;;
35380;SDS011;21486;51.916;8.378;2024-01-11T17:12:03;48.35;;;19.45;;
35380;SDS011;21486;51.916;8.378;2024-01-11T17:14:29;66.28;;;24.77;;
35380;SDS011;21486;51.916;8.378;2024-01-11T17:16:54;103.47;;;33.70;;
35380;SDS011;21486;51.916;8.378;2024-01-11T17:19:20;64.88;;;22.67;;
35380;SDS011;21486;51.916;8.378;2024-01-11T17:21:45;64.45;;;22.55;;
35380;SDS011;21486;51.916;8.378;2024-01-11T17:24:11;104.65;;;33.03;;
35380;SDS011;21486;51.916;8.378;2024-01-11T17:26:36;57.38;;;22.35;;
35380;SDS011;21486;51.916;8.378;2024-01-11T17:29:02;57.55;;;19.58;;
35380;SDS011;21486;51.916;8.378;2024-01-11T17:31:27;54.80;;;19.42;;
35380;SDS011;21486;51.916;8.378;2024-01-11T17:33:53;57.53;;;20.33;;
35380;SDS011;21486;51.916;8.378;2024-01-11T17:36:20;59.50;;;21.17;;
35380;SDS011;21486;51.916;8.378;2024-01-11T17:38:45;52.55;;;20.67;;
35380;SDS011;21486;51.916;8.378;2024-01-11T17:41:11;54.30;;;19.30;;
35380;SDS011;21486;51.916;8.378;2024-01-11T17:43:36;57.63;;;21.83;;
35380;SDS011;21486;51.916;8.378;2024-01-11T17:46:02;59.38;;;21.35;;
35380;SDS011;21486;51.916;8.378;2024-01-11T17:48:28;58.17;;;20.40;;
35380;SDS011;21486;51.916;8.378;2024-01-11T17:50:53;54.28;;;20.10;;
35380;SDS011;21486;51.916;8.378;2024-01-11T17:53:19;55.08;;;20.13;;
35380;SDS011;21486;51.916;8.378;2024-01-11T17:55:44;64.05;;;20.60;;
35380;SDS011;21486;51.916;8.378;2024-01-11T17:58:11;51.67;;;18.35;;
35380;SDS011;21486;51.916;8.378;2024-01-11T18:00:36;65.75;;;21.40;;
35380;SDS011;21486;51.916;8.378;2024-01-11T18:03:02;58.22;;;19.73;;